Time;durP1;ratioP1;P1;durP2;ratioP2;P2;SDS_P1;SDS_P2;PMS_P1;PMS_P2;Temp;Humidity;BMP_temperature;BMP_pressure;BME280_temperature;BME280_humidity;BME280_pressure;Samples;Min_cycle;Max_cycle;Signal;HPM_P1;HPM_P2
2021/11/03 00:02:10;;;;;;;35.83;23.83;;;8.10;99.90;;;;;;5120557;28;20483;-70
2021/11/03 00:04:37;;;;;;;34.95;22.92;;;8.10;99.90;;;;;;5117638;28;20046;-69
2021/11/03 00:07:04;;;;;;;39.17;23.05;;;8.00;99.90;;;;;;5124991;28;20666;-68
2021/11/03 00:09:31;;;;;;;38.38;23.15;;;8.00;99.90;;;;;;5125367;28;20035;-68
2021/11/03 00:11:58;;;;;;;36.70;23.17;;;8.00;99.90;;;;;;5117691;28;20027;-69
2021/11/03 00:14:23;;;;;;;34.47;22.92;;;7.90;99.90;;;;;;5119952;28;20028;-68
2021/11/03 00:16:49;;;;;;;43.10;25.52;;;7.90;99.90;;;;;;5129327;27;20069;-68
2021/11/03 00:19:15;;;;;;;35.58;22.52;;;7.90;99.90;;;;;;5124921;27;20473;-69
2021/11/03 00:21:41;;;;;;;40.65;24.70;;;7.90;99.90;;;;;;5120832;27;20046;-68
2021/11/03 00:24:07;;;;;;;40.70;25.05;;;7.90;99.90;;;;;;5127787;27;20101;-69
2021/11/03 00:26:32;;;;;;;38.22;24.02;;;7.90;99.90;;;;;;5128949;27;20024;-69
2021/11/03 00:28:58;;;;;;;40.72;23.67;;;7.80;99.90;;;;;;5121069;27;20011;-69
2021/11/03 00:31:24;;;;;;;37.35;23.67;;;7.90;99.90;;;;;;5123583;27;20389;-69
2021/11/03 00:33:50;;;;;;;35.33;22.67;;;7.80;99.90;;;;;;5129114;27;20020;-69
2021/11/03 00:36:16;;;;;;;36.20;22.95;;;7.80;99.90;;;;;;5124663;27;20030;-69
2021/11/03 00:38:42;;;;;;;37.63;23.95;;;7.80;99.90;;;;;;5120923;27;20024;-69
2021/11/03 00:41:08;;;;;;;35.40;23.35;;;7.80;99.90;;;;;;5127366;27;20475;-69
2021/11/03 00:43:35;;;;;;;40.30;25.00;;;7.80;99.90;;;;;;5114734;28;20031;-68
2021/11/03 00:46:00;;;;;;;36.15;23.70;;;7.80;99.90;;;;;;5128878;27;20024;-68
2021/11/03 00:48:27;;;;;;;41.08;23.45;;;7.80;99.90;;;;;;5126417;27;20030;-69
2021/11/03 00:50:52;;;;;;;38.38;24.27;;;7.80;99.90;;;;;;5120668;27;20015;-68
2021/11/03 00:53:19;;;;;;;39.00;24.23;;;7.80;99.90;;;;;;5124802;27;20483;-68
2021/11/03 00:55:45;;;;;;;41.40;24.85;;;7.80;99.90;;;;;;5130537;27;20482;-68
2021/11/03 00:58:11;;;;;;;40.92;25.30;;;7.80;99.90;;;;;;5130599;27;20028;-68
2021/11/03 01:00:37;;;;;;;43.85;25.17;;;7.80;99.90;;;;;;5124335;27;20055;-68
2021/11/03 01:03:06;;;;;;;42.10;25.60;;;7.70;99.90;;;;;;5120510;27;20054;-68
2021/11/03 01:05:32;;;;;;;41.75;25.80;;;7.70;99.90;;;;;;5125945;27;20051;-68
2021/11/03 01:07:57;;;;;;;37.75;24.45;;;7.70;99.90;;;;;;5128399;27;20034;-68
2021/11/03 01:10:24;;;;;;;45.08;27.05;;;7.70;99.90;;;;;;5120935;27;20019;-68
2021/11/03 01:12:52;;;;;;;46.10;27.17;;;7.70;99.90;;;;;;5121703;27;20035;-68
2021/11/03 01:15:21;;;;;;;43.22;26.33;;;7.70;99.90;;;;;;5118854;27;20015;-68
2021/11/03 01:17:46;;;;;;;42.78;27.25;;;7.70;99.90;;;;;;5122778;27;20027;-68
2021/11/03 01:20:14;;;;;;;45.35;27.30;;;7.70;99.90;;;;;;5128173;27;20015;-68
2021/11/03 01:22:41;;;;;;;47.22;27.38;;;7.70;99.90;;;;;;5123738;27;20064;-68
2021/11/03 01:25:09;;;;;;;46.20;27.17;;;7.70;99.90;;;;;;5119803;27;20027;-68
2021/11/03 01:27:35;;;;;;;43.17;27.80;;;7.70;99.90;;;;;;5124969;27;20115;-68
2021/11/03 01:30:01;;;;;;;47.83;27.38;;;7.70;99.90;;;;;;5113915;28;20106;-68
2021/11/03 01:32:26;;;;;;;43.90;27.27;;;7.70;99.90;;;;;;5119846;27;20087;-68
2021/11/03 01:34:52;;;;;;;39.63;25.88;;;7.70;99.90;;;;;;5121885;27;20028;-68
2021/11/03 01:37:18;;;;;;;46.60;26.98;;;7.70;99.90;;;;;;5128134;27;20523;-68
2021/11/03 01:39:44;;;;;;;45.55;26.20;;;7.60;99.90;;;;;;5123707;27;20114;-68
2021/11/03 01:42:09;;;;;;;41.20;26.67;;;7.70;99.90;;;;;;5119497;27;20038;-68
2021/11/03 01:44:35;;;;;;;45.33;27.52;;;7.60;99.90;;;;;;5125921;27;20027;-68
2021/11/03 01:47:43;;;;;;;45.65;27.63;;;7.60;99.90;;;;;;5127675;27;20038;-68
2021/11/03 01:50:33;;;;;;;44.25;26.40;;;7.60;99.90;;;;;;5125310;27;20482;-68
2021/11/03 01:52:59;;;;;;;48.55;27.88;;;7.70;99.90;;;;;;5126640;27;20043;-68
2021/11/03 01:55:26;;;;;;;46.58;29.30;;;7.60;99.90;;;;;;5126544;27;20063;-68
2021/11/03 01:57:57;;;;;;;48.63;28.95;;;7.60;99.90;;;;;;5132190;27;20080;-68
2021/11/03 02:00:28;;;;;;;46.30;27.33;;;7.60;99.90;;;;;;5121145;27;20079;-68
2021/11/03 02:02:59;;;;;;;44.85;27.55;;;7.70;99.90;;;;;;5118929;27;20038;-68
2021/11/03 02:05:25;;;;;;;42.85;25.98;;;7.60;99.90;;;;;;5125649;27;20020;-68
2021/11/03 02:07:53;;;;;;;43.80;26.48;;;7.60;99.90;;;;;;5127005;27;20489;-68
2021/11/03 02:10:20;;;;;;;48.80;28.17;;;7.60;99.90;;;;;;5118910;27;20044;-68
2021/11/03 02:12:45;;;;;;;44.35;28.00;;;7.60;99.90;;;;;;5120899;27;20023;-68
2021/11/03 02:15:14;;;;;;;45.97;28.75;;;7.60;99.90;;;;;;5127174;27;20016;-68
2021/11/03 02:17:40;;;;;;;46.88;26.92;;;7.60;99.90;;;;;;5112963;28;20032;-68
2021/11/03 02:20:10;;;;;;;41.03;26.77;;;7.60;99.90;;;;;;5126890;27;20023;-68
2021/11/03 02:22:38;;;;;;;50.05;26.60;;;7.60;99.90;;;;;;5121841;27;20042;-68
2021/11/03 02:54:21;;;;;;;47.22;27.27;;;7.50;99.90;;;;;;5118049;27;20386;-67
2021/11/03 02:56:57;;;;;;;48.88;26.33;;;7.50;99.90;;;;;;5126315;27;20074;-67
2021/11/03 02:59:25;;;;;;;41.65;25.25;;;7.40;99.90;;;;;;5126523;27;20047;-68
2021/11/03 03:02:01;;;;;;;42.38;26.08;;;7.40;99.90;;;;;;5126122;27;20031;-67
2021/11/03 03:04:35;;;;;;;40.58;25.92;;;7.40;99.90;;;;;;5126242;27;20057;-68
2021/11/03 03:07:02;;;;;;;46.60;25.20;;;7.40;99.90;;;;;;5125817;27;20051;-68
2021/11/03 03:09:28;;;;;;;43.58;26.33;;;7.40;99.90;;;;;;5125208;27;20132;-68
2021/11/03 03:11:57;;;;;;;48.97;27.00;;;7.40;99.90;;;;;;5112797;27;20023;-68
2021/11/03 03:14:26;;;;;;;46.00;26.02;;;7.40;99.90;;;;;;5111871;28;20639;-69
2021/11/03 03:16:53;;;;;;;51.45;26.45;;;7.40;99.90;;;;;;5130761;27;20024;-69
2021/11/03 03:19:19;;;;;;;43.35;25.38;;;7.40;99.90;;;;;;5132218;28;20027;-69
2021/11/03 03:21:45;;;;;;;46.10;26.90;;;7.40;99.90;;;;;;5132207;27;20064;-69
2021/11/03 03:24:12;;;;;;;44.03;26.92;;;7.40;99.90;;;;;;5124793;28;20102;-69
2021/11/03 03:26:40;;;;;;;44.15;27.70;;;7.40;99.90;;;;;;5117841;28;20051;-69
2021/11/03 03:29:07;;;;;;;41.75;24.08;;;7.40;99.90;;;;;;5132361;28;20024;-69
2021/11/03 03:31:34;;;;;;;48.20;26.75;;;7.40;99.90;;;;;;5117670;28;20024;-69
2021/11/03 03:34:03;;;;;;;46.78;25.98;;;7.40;99.90;;;;;;5125097;28;20016;-69
2021/11/03 03:36:29;;;;;;;56.13;27.65;;;7.40;99.90;;;;;;5125623;28;20023;-68
2021/11/03 03:38:55;;;;;;;46.83;27.95;;;7.40;99.90;;;;;;5117832;28;20383;-68
2021/11/03 03:41:23;;;;;;;43.72;26.15;;;7.40;99.90;;;;;;5120194;28;20052;-68
2021/11/03 03:43:49;;;;;;;45.33;27.33;;;7.40;99.90;;;;;;5126038;28;20471;-69
2021/11/03 03:46:16;;;;;;;48.20;28.63;;;7.40;99.90;;;;;;5122083;28;20076;-69
2021/11/03 03:48:41;;;;;;;51.50;28.10;;;7.40;99.90;;;;;;5117737;28;20299;-69
2021/11/03 03:51:08;;;;;;;51.75;28.05;;;7.40;99.90;;;;;;5134546;27;20506;-68
2021/11/03 03:53:34;;;;;;;43.40;25.80;;;7.50;99.90;;;;;;5120815;27;20028;-68
2021/11/03 03:56:00;;;;;;;43.70;26.40;;;7.40;99.90;;;;;;5129748;27;20098;-68
2021/11/03 03:58:26;;;;;;;44.80;26.77;;;7.40;99.90;;;;;;5127732;27;20543;-68
2021/11/03 04:00:52;;;;;;;44.97;26.13;;;7.50;99.90;;;;;;5131942;27;20042;-69
2021/11/03 04:03:19;;;;;;;40.88;24.98;;;7.50;99.90;;;;;;5125495;27;20031;-68
2021/11/03 04:05:45;;;;;;;44.92;26.30;;;7.50;99.90;;;;;;5133778;27;20501;-68
2021/11/03 04:08:13;;;;;;;45.53;26.48;;;7.40;99.90;;;;;;5123618;27;20023;-68
2021/11/03 04:10:40;;;;;;;47.03;26.33;;;7.40;99.90;;;;;;5121308;27;20024;-68
2021/11/03 04:13:06;;;;;;;44.35;27.50;;;7.40;99.90;;;;;;5136400;27;20019;-69
2021/11/03 04:15:33;;;;;;;43.75;26.45;;;7.40;99.90;;;;;;5123054;27;20024;-69
2021/11/03 04:17:59;;;;;;;44.00;26.85;;;7.40;99.90;;;;;;5134576;27;20020;-69
2021/11/03 04:20:25;;;;;;;43.90;26.23;;;7.40;99.90;;;;;;5135778;27;20474;-69
2021/11/03 04:22:51;;;;;;;44.45;25.92;;;7.40;99.90;;;;;;5134570;27;20035;-69
2021/11/03 04:25:18;;;;;;;47.75;26.85;;;7.40;99.90;;;;;;5135538;27;20046;-69
2021/11/03 04:27:44;;;;;;;43.97;27.80;;;7.40;99.90;;;;;;5135502;27;20039;-69
2021/11/03 04:30:13;;;;;;;42.75;25.90;;;7.40;99.90;;;;;;5135746;27;20047;-69
2021/11/03 04:32:39;;;;;;;49.53;28.25;;;7.40;99.90;;;;;;5135461;27;20034;-69
2021/11/03 04:35:06;;;;;;;46.35;27.48;;;7.40;99.90;;;;;;5120821;27;20031;-69
2021/11/03 04:37:32;;;;;;;51.17;28.75;;;7.50;99.90;;;;;;5124441;27;20047;-69
2021/11/03 04:39:58;;;;;;;48.45;28.27;;;7.40;99.90;;;;;;5129062;27;20080;-69
2021/11/03 04:42:23;;;;;;;41.97;26.73;;;7.50;99.90;;;;;;5123421;27;20496;-69
2021/11/03 04:44:49;;;;;;;40.88;25.88;;;7.50;99.90;;;;;;5120794;27;20031;-69
2021/11/03 04:47:15;;;;;;;43.00;25.77;;;7.40;99.90;;;;;;5135177;27;20050;-68
2021/11/03 04:49:41;;;;;;;45.78;28.13;;;7.40;99.90;;;;;;5122105;27;20052;-68
2021/11/03 04:52:07;;;;;;;51.28;27.08;;;7.50;99.90;;;;;;5133666;27;20039;-67
2021/11/03 04:54:33;;;;;;;45.75;27.33;;;7.40;99.90;;;;;;5135251;27;20031;-68
2021/11/03 04:56:59;;;;;;;52.63;27.58;;;7.40;99.90;;;;;;5134866;27;20364;-68
2021/11/03 04:59:25;;;;;;;48.78;27.05;;;7.40;99.90;;;;;;5126020;27;20403;-68
2021/11/03 05:01:51;;;;;;;56.25;28.42;;;7.40;99.90;;;;;;5114648;27;20039;-68
2021/11/03 05:04:17;;;;;;;51.10;27.73;;;7.40;99.90;;;;;;5127798;27;20587;-68
2021/11/03 05:06:48;;;;;;;51.00;28.02;;;7.40;99.90;;;;;;5127247;27;20114;-68
2021/11/03 05:09:15;;;;;;;44.67;27.42;;;7.40;99.90;;;;;;5120465;27;20470;-67
2021/11/03 05:11:41;;;;;;;40.78;27.25;;;7.40;99.90;;;;;;5122640;27;20032;-67
2021/11/03 05:14:07;;;;;;;42.45;26.90;;;7.40;99.90;;;;;;5132095;27;20030;-67
2021/11/03 05:16:33;;;;;;;51.00;28.85;;;7.40;99.90;;;;;;5124629;27;20019;-68
2021/11/03 05:18:59;;;;;;;47.60;27.95;;;7.30;99.90;;;;;;5128092;27;20031;-68
2021/11/03 05:21:26;;;;;;;49.42;26.13;;;7.30;99.90;;;;;;5121808;27;20039;-68
2021/11/03 05:23:53;;;;;;;49.47;28.35;;;7.30;99.90;;;;;;5130445;27;20027;-68
2021/11/03 05:26:22;;;;;;;44.78;26.90;;;7.40;99.90;;;;;;5134265;27;20459;-68
2021/11/03 05:28:52;;;;;;;50.42;28.80;;;7.30;99.90;;;;;;5125826;27;20019;-68
2021/11/03 05:31:19;;;;;;;49.83;28.65;;;7.40;99.90;;;;;;5114786;27;20112;-67
2021/11/03 05:33:44;;;;;;;48.75;29.23;;;7.30;99.90;;;;;;5134126;27;20020;-66
2021/11/03 05:36:19;;;;;;;26.80;15.45;;;7.30;99.90;;;;;;5120661;27;20020;-68
2021/11/03 05:38:45;;;;;;;25.60;16.85;;;7.60;99.90;;;;;;5113722;28;20023;-65
2021/11/03 05:41:11;;;;;;;41.67;25.90;;;9.50;99.90;;;;;;5126836;27;20027;-65
2021/11/03 05:43:37;;;;;;;37.47;23.50;;;9.60;99.90;;;;;;5128875;27;20428;-65
2021/11/03 05:46:03;;;;;;;38.25;23.65;;;9.00;99.90;;;;;;5123645;27;20027;-66
2021/11/03 05:48:31;;;;;;;41.22;25.08;;;8.60;99.90;;;;;;5131758;27;20044;-66
2021/11/03 05:50:57;;;;;;;45.97;26.30;;;8.30;99.90;;;;;;5124394;27;20022;-66
2021/11/03 05:53:23;;;;;;;42.55;25.05;;;8.10;99.90;;;;;;5119641;27;20026;-66
2021/11/03 05:55:48;;;;;;;39.97;26.05;;;7.90;99.90;;;;;;5126278;27;20494;-66
2021/11/03 05:58:14;;;;;;;43.10;26.55;;;7.90;99.90;;;;;;5128940;27;20031;-66
2021/11/03 06:00:40;;;;;;;49.47;28.58;;;7.80;99.90;;;;;;5114760;27;21212;-66
2021/11/03 06:03:06;;;;;;;42.05;25.90;;;7.80;99.90;;;;;;5132672;27;20062;-65
2021/11/03 06:05:32;;;;;;;40.42;25.90;;;7.70;99.90;;;;;;5118553;27;20019;-65
2021/11/03 06:08:01;;;;;;;45.03;26.42;;;7.70;99.90;;;;;;5125126;27;20026;-65
2021/11/03 06:10:32;;;;;;;42.03;25.73;;;7.70;99.90;;;;;;5119016;27;20026;-65
2021/11/03 06:12:58;;;;;;;42.22;26.38;;;7.60;99.90;;;;;;5123522;27;20028;-65
2021/11/03 06:15:27;;;;;;;42.65;27.52;;;7.50;99.90;;;;;;5117778;27;20028;-65
2021/11/03 06:17:53;;;;;;;43.55;27.13;;;7.50;99.90;;;;;;5128224;27;20026;-65
2021/11/03 06:20:20;;;;;;;39.60;26.20;;;7.50;99.90;;;;;;5120457;27;20024;-65
2021/11/03 06:22:46;;;;;;;47.28;28.75;;;7.50;99.90;;;;;;5115683;27;20122;-65
2021/11/03 06:25:13;;;;;;;47.88;28.05;;;7.50;99.90;;;;;;5132867;27;20551;-66
2021/11/03 06:27:40;;;;;;;44.20;27.63;;;7.40;99.90;;;;;;5118542;27;20051;-66
2021/11/03 06:30:07;;;;;;;46.88;27.98;;;7.40;99.90;;;;;;5117769;27;20077;-65
2021/11/03 06:32:35;;;;;;;39.47;25.85;;;7.40;99.90;;;;;;5119692;27;20015;-65
2021/11/03 06:35:04;;;;;;;53.40;29.70;;;7.50;99.90;;;;;;5120131;27;20036;-65
2021/11/03 06:37:30;;;;;;;46.25;27.48;;;7.40;99.90;;;;;;5126689;27;20012;-65
2021/11/03 06:39:55;;;;;;;47.53;30.02;;;7.40;99.90;;;;;;5116350;27;20024;-67
2021/11/03 06:42:21;;;;;;;45.85;28.63;;;7.40;99.90;;;;;;5132736;27;20461;-65
2021/11/03 06:44:47;;;;;;;50.03;28.60;;;7.40;99.90;;;;;;5130706;27;20407;-65
2021/11/03 06:47:13;;;;;;;44.30;28.10;;;7.40;99.90;;;;;;5130652;27;20435;-65
2021/11/03 06:49:39;;;;;;;52.42;31.00;;;7.40;99.90;;;;;;5132264;27;20416;-65
2021/11/03 06:52:06;;;;;;;45.83;28.45;;;7.30;99.90;;;;;;5130782;27;20019;-65
2021/11/03 06:54:31;;;;;;;36.80;22.42;;;7.40;99.90;;;;;;5118495;27;20020;-64
2021/11/03 06:56:58;;;;;;;59.72;34.03;;;7.50;99.90;;;;;;5111678;28;20031;-75
2021/11/03 06:59:24;;;;;;;47.30;30.83;;;7.60;99.90;;;;;;5121629;27;20045;-76
2021/11/03 07:01:50;;;;;;;46.63;29.85;;;7.60;99.90;;;;;;5130140;27;20479;-67
2021/11/03 07:04:16;;;;;;;49.65;31.02;;;7.50;99.90;;;;;;5132573;27;20026;-67
2021/11/03 07:06:42;;;;;;;40.72;27.83;;;7.40;99.90;;;;;;5130337;27;20019;-67
2021/11/03 07:09:09;;;;;;;39.03;26.95;;;7.40;99.90;;;;;;5126433;27;20556;-70
2021/11/03 07:11:35;;;;;;;45.83;28.10;;;7.30;99.90;;;;;;5132134;27;20012;-68
2021/11/03 07:14:01;;;;;;;45.30;29.75;;;7.30;99.90;;;;;;5123701;27;20100;-68
2021/11/03 07:16:27;;;;;;;46.63;29.10;;;7.30;99.90;;;;;;5129158;27;20027;-67
2021/11/03 07:18:53;;;;;;;52.97;31.70;;;7.30;99.90;;;;;;5117761;28;20054;-67
2021/11/03 07:21:19;;;;;;;47.03;29.23;;;7.30;99.90;;;;;;5126135;28;20458;-68
2021/11/03 07:23:44;;;;;;;50.17;28.38;;;7.30;99.90;;;;;;5125059;28;20027;-68
2021/11/03 07:26:13;;;;;;;38.53;23.08;;;7.30;99.90;;;;;;5135108;27;20486;-67
2021/11/03 07:28:38;;;;;;;44.13;28.60;;;7.70;99.90;;;;;;5136961;27;20031;-68
2021/11/03 07:31:06;;;;;;;42.00;27.42;;;8.10;99.90;;;;;;5134090;27;20398;-69
2021/11/03 07:33:33;;;;;;;43.47;26.23;;;7.90;99.90;;;;;;5135904;27;20471;-68
2021/11/03 07:35:59;;;;;;;44.30;28.35;;;7.80;99.90;;;;;;5136617;27;20034;-68
2021/11/03 07:38:26;;;;;;;46.42;27.52;;;7.60;99.90;;;;;;5137011;27;20050;-69
2021/11/03 07:40:55;;;;;;;45.30;26.77;;;7.60;99.90;;;;;;5136388;27;20023;-68
2021/11/03 07:43:23;;;;;;;43.05;27.55;;;7.50;99.90;;;;;;5136374;27;20166;-68
2021/11/03 07:45:51;;;;;;;45.15;26.70;;;7.40;99.90;;;;;;5136965;27;20019;-68
2021/11/03 07:48:19;;;;;;;42.85;27.45;;;7.40;99.90;;;;;;5136487;27;20030;-68
2021/11/03 07:50:49;;;;;;;45.22;28.85;;;7.40;99.90;;;;;;5136297;27;20140;-68
2021/11/03 07:53:16;;;;;;;49.58;28.55;;;7.40;99.90;;;;;;5134974;27;20045;-68
2021/11/03 07:55:45;;;;;;;45.40;28.08;;;7.40;99.90;;;;;;5136546;27;20031;-68
2021/11/03 07:58:19;;;;;;;41.13;27.70;;;7.30;99.90;;;;;;5136392;27;20532;-68
2021/11/03 08:00:45;;;;;;;40.38;27.10;;;7.30;99.90;;;;;;5136179;27;20039;-69
2021/11/03 08:03:11;;;;;;;41.25;28.08;;;7.30;99.90;;;;;;5136215;27;20118;-68
2021/11/03 08:05:37;;;;;;;42.97;27.98;;;7.30;99.90;;;;;;5136405;27;20027;-68
2021/11/03 08:08:09;;;;;;;44.20;27.48;;;7.30;99.90;;;;;;5132218;27;20035;-69
2021/11/03 08:10:36;;;;;;;45.60;27.88;;;7.40;99.90;;;;;;5129137;27;20016;-69
2021/11/03 08:13:03;;;;;;;45.08;28.65;;;7.30;99.90;;;;;;5134217;27;20478;-67
2021/11/03 08:15:29;;;;;;;41.95;27.17;;;7.30;99.90;;;;;;5135147;27;20027;-67
2021/11/03 08:17:57;;;;;;;44.25;27.83;;;7.40;99.90;;;;;;5129466;27;20451;-66
2021/11/03 08:20:25;;;;;;;47.70;29.40;;;7.30;99.90;;;;;;5134071;27;20019;-67
2021/11/03 08:22:52;;;;;;;45.65;28.13;;;7.40;99.90;;;;;;5135552;27;20395;-67
2021/11/03 08:25:19;;;;;;;55.35;34.78;;;7.40;99.90;;;;;;5135789;27;20023;-67
2021/11/03 08:27:45;;;;;;;54.33;31.25;;;7.40;99.90;;;;;;5136000;27;20019;-67
2021/11/03 08:30:12;;;;;;;53.67;34.75;;;7.40;99.90;;;;;;5135644;27;20023;-67
2021/11/03 08:32:47;;;;;;;53.50;35.63;;;7.40;99.90;;;;;;5136249;27;20427;-67
2021/11/03 08:35:13;;;;;;;54.67;32.78;;;7.40;99.90;;;;;;5135734;27;20023;-67
2021/11/03 08:37:40;;;;;;;44.72;29.00;;;7.40;99.90;;;;;;5133774;27;20031;-67
2021/11/03 08:40:10;;;;;;;46.50;28.98;;;7.40;99.90;;;;;;5134509;27;20470;-67
2021/11/03 08:42:36;;;;;;;43.80;28.55;;;7.40;99.90;;;;;;5137264;27;20065;-67
2021/11/03 08:45:02;;;;;;;44.30;27.42;;;7.40;99.90;;;;;;5141729;27;20046;-67
2021/11/03 08:47:28;;;;;;;45.88;29.70;;;7.40;99.90;;;;;;5151030;27;20026;-67
2021/11/03 08:49:54;;;;;;;48.17;31.23;;;7.40;99.90;;;;;;5142985;27;20023;-67
2021/11/03 08:52:20;;;;;;;47.78;31.15;;;7.40;99.90;;;;;;5145419;27;20511;-67
2021/11/03 08:54:49;;;;;;;42.70;28.63;;;7.40;99.90;;;;;;5137506;27;20016;-67
2021/11/03 08:57:19;;;;;;;43.65;28.95;;;7.30;99.90;;;;;;5134841;27;20046;-67
2021/11/03 08:59:49;;;;;;;45.15;28.15;;;7.30;99.90;;;;;;5117604;27;20479;-67
2021/11/03 09:02:15;;;;;;;47.05;28.30;;;7.40;99.90;;;;;;5134666;27;20039;-67
2021/11/03 09:04:41;;;;;;;39.00;26.27;;;7.40;99.90;;;;;;5134718;27;20030;-67
2021/11/03 09:07:12;;;;;;;39.15;24.95;;;7.40;99.90;;;;;;5134597;27;20046;-67
2021/11/03 09:09:39;;;;;;;39.60;25.15;;;7.30;99.90;;;;;;5134161;27;20079;-67
2021/11/03 09:12:07;;;;;;;44.33;28.67;;;7.30;99.90;;;;;;5134503;27;20047;-67
2021/11/03 09:14:33;;;;;;;42.60;26.52;;;7.40;99.90;;;;;;5133702;27;20064;-66
2021/11/03 09:16:58;;;;;;;46.15;29.17;;;7.40;99.90;;;;;;5134157;27;20031;-66
2021/11/03 09:19:24;;;;;;;42.90;27.02;;;7.40;99.90;;;;;;5134066;27;20098;-67
2021/11/03 09:21:50;;;;;;;40.33;26.13;;;7.40;99.90;;;;;;5133234;27;20055;-67
2021/11/03 09:24:16;;;;;;;39.22;26.77;;;7.40;99.90;;;;;;5133288;27;20372;-67
2021/11/03 09:26:43;;;;;;;46.33;31.13;;;7.40;99.90;;;;;;5133995;27;20076;-66
2021/11/03 09:29:10;;;;;;;46.17;28.42;;;7.50;99.90;;;;;;5134295;27;20024;-66
2021/11/03 09:31:37;;;;;;;38.78;26.95;;;7.50;99.90;;;;;;5134294;27;20032;-68
2021/11/03 09:34:03;;;;;;;39.08;25.83;;;7.50;99.90;;;;;;5134251;27;20012;-66
2021/11/03 09:36:29;;;;;;;46.05;27.48;;;7.40;99.90;;;;;;5134637;27;20034;-66
2021/11/03 09:38:56;;;;;;;41.65;26.70;;;7.40;99.90;;;;;;5134150;27;20062;-66
2021/11/03 09:41:30;;;;;;;37.95;25.40;;;7.40;99.90;;;;;;5133902;27;20026;-66
2021/11/03 09:44:20;;;;;;;38.78;25.55;;;7.50;99.90;;;;;;5133980;27;20031;-66
2021/11/03 09:47:40;;;;;;;35.47;23.80;;;7.50;99.90;;;;;;5134195;27;20015;-66
2021/11/03 09:50:19;;;;;;;39.25;25.65;;;7.50;99.90;;;;;;5143873;27;20027;-66
2021/11/03 09:52:55;;;;;;;37.57;24.23;;;7.50;99.90;;;;;;5154958;27;20079;-66
2021/11/03 09:55:33;;;;;;;40.25;24.65;;;7.50;99.90;;;;;;5154641;27;20067;-66
2021/11/03 09:58:26;;;;;;;37.53;25.23;;;7.50;99.90;;;;;;5154618;27;20427;-66
2021/11/03 10:01:13;;;;;;;36.22;23.52;;;7.50;99.90;;;;;;5154094;27;20117;-66
2021/11/03 10:03:59;;;;;;;35.45;22.90;;;8.00;99.90;;;;;;5150140;27;20107;-70
2021/11/03 10:06:40;;;;;;;36.47;23.33;;;8.00;99.90;;;;;;5133951;27;20092;-70
2021/11/03 10:09:06;;;;;;;36.55;23.50;;;7.80;99.90;;;;;;5133998;27;20104;-68
2021/11/03 10:11:36;;;;;;;33.88;23.23;;;7.70;99.90;;;;;;5139798;27;20321;-66
2021/11/03 10:14:02;;;;;;;35.15;23.23;;;7.60;99.90;;;;;;5140083;27;20029;-68
2021/11/03 10:16:30;;;;;;;34.05;23.52;;;7.60;99.90;;;;;;5141197;27;20042;-68
2021/11/03 10:19:22;;;;;;;36.88;23.65;;;7.60;99.90;;;;;;5139510;27;20019;-66
2021/11/03 10:21:51;;;;;;;31.10;22.60;;;7.60;99.90;;;;;;5136547;27;20532;-68
2021/11/03 10:24:18;;;;;;;34.37;23.43;;;7.60;99.90;;;;;;5122472;27;20097;-66
2021/11/03 10:26:47;;;;;;;35.05;23.23;;;7.60;99.90;;;;;;5125181;27;20100;-66
2021/11/03 10:29:15;;;;;;;30.67;20.77;;;7.60;99.90;;;;;;5123349;27;20035;-67
2021/11/03 10:31:58;;;;;;;36.05;24.15;;;7.60;99.90;;;;;;5124652;27;20051;-67
2021/11/03 10:34:29;;;;;;;36.22;23.85;;;7.60;99.90;;;;;;5123350;27;20019;-66
2021/11/03 10:37:23;;;;;;;34.42;24.27;;;7.60;99.90;;;;;;5123394;27;20043;-67
2021/11/03 10:39:56;;;;;;;36.85;22.95;;;7.60;99.90;;;;;;5127356;27;20091;-67
2021/11/03 10:42:28;;;;;;;32.35;22.42;;;7.60;99.90;;;;;;5142983;27;20478;-68
2021/11/03 10:45:15;;;;;;;32.95;22.73;;;7.60;99.90;;;;;;5138911;27;20600;-68
2021/11/03 10:47:46;;;;;;;33.05;22.40;;;7.60;99.90;;;;;;5138266;27;20042;-68
2021/11/03 10:50:35;;;;;;;32.47;22.55;;;7.60;99.90;;;;;;5123712;27;20031;-69
2021/11/03 10:53:23;;;;;;;37.97;23.55;;;7.70;99.90;;;;;;5120456;27;20090;-68
2021/11/03 10:56:21;;;;;;;32.08;22.25;;;7.60;99.90;;;;;;5113154;27;20110;-69
2021/11/03 10:58:50;;;;;;;34.33;20.90;;;7.60;99.90;;;;;;5110342;27;20070;-68
2021/11/03 11:01:27;;;;;;;34.28;23.52;;;7.70;99.90;;;;;;5122491;27;20043;-68
2021/11/03 11:04:09;;;;;;;29.90;21.10;;;7.60;99.90;;;;;;5122417;27;20020;-68
2021/11/03 11:06:41;;;;;;;32.00;21.88;;;7.60;99.90;;;;;;5123029;27;20054;-68
2021/11/03 11:09:10;;;;;;;38.40;23.88;;;7.60;99.90;;;;;;5121401;28;20034;-68
2021/11/03 11:11:38;;;;;;;38.15;25.30;;;7.60;99.90;;;;;;5120500;27;20020;-67
2021/11/03 11:14:17;;;;;;;36.45;23.40;;;7.60;99.90;;;;;;5122304;27;20376;-67
2021/11/03 11:17:17;;;;;;;37.05;24.45;;;7.70;99.90;;;;;;5121719;27;20028;-67
2021/11/03 11:20:03;;;;;;;38.05;23.20;;;7.60;99.90;;;;;;5117177;27;20058;-67
2021/11/03 11:22:59;;;;;;;37.35;22.77;;;7.60;99.90;;;;;;5121895;28;20065;-69
2021/11/03 11:25:56;;;;;;;33.22;21.50;;;7.60;99.90;;;;;;5121733;28;20489;-68
2021/11/03 11:29:01;;;;;;;30.85;20.80;;;7.60;99.90;;;;;;5123663;27;20024;-68
2021/11/03 11:31:44;;;;;;;32.35;21.75;;;7.60;99.90;;;;;;5115919;27;20479;-67
2021/11/03 11:34:40;;;;;;;34.47;22.05;;;7.60;99.90;;;;;;5121989;28;20038;-67
2021/11/03 11:37:18;;;;;;;32.92;21.02;;;7.60;99.90;;;;;;5128224;27;20134;-67
2021/11/03 11:40:19;;;;;;;30.13;20.67;;;7.60;99.90;;;;;;5125229;27;20034;-66
2021/11/03 11:42:52;;;;;;;32.00;20.50;;;7.60;99.90;;;;;;5057623;28;20097;-67
2021/11/03 11:45:28;;;;;;;30.20;20.05;;;7.60;99.90;;;;;;5107779;28;20035;-67
2021/11/03 11:48:04;;;;;;;39.35;21.60;;;7.60;99.90;;;;;;5122272;28;20055;-66
2021/11/03 11:50:53;;;;;;;28.65;19.73;;;7.60;99.90;;;;;;5121268;28;20095;-66
2021/11/03 11:53:22;;;;;;;36.17;23.95;;;7.60;99.90;;;;;;5122221;28;20517;-66
2021/11/03 11:56:08;;;;;;;33.42;20.65;;;7.60;99.90;;;;;;5120753;28;20032;-67
2021/11/03 11:58:44;;;;;;;30.23;20.52;;;7.60;99.90;;;;;;5119414;27;20544;-67
2021/11/03 12:01:21;;;;;;;31.35;20.88;;;7.70;99.90;;;;;;5125992;27;20043;-66
2021/11/03 12:04:22;;;;;;;29.00;19.85;;;7.70;99.90;;;;;;5149072;27;20423;-66
2021/11/03 12:07:16;;;;;;;26.00;18.17;;;7.70;99.90;;;;;;5131887;27;20035;-66
2021/11/03 12:09:57;;;;;;;31.05;20.90;;;7.60;99.90;;;;;;5131078;27;20023;-67
2021/11/03 12:12:23;;;;;;;32.08;20.63;;;7.70;99.90;;;;;;5133619;27;20060;-67
2021/11/03 12:14:56;;;;;;;28.08;19.83;;;7.70;99.90;;;;;;5136224;27;20040;-66
2021/11/03 12:17:51;;;;;;;31.63;21.35;;;7.70;99.90;;;;;;5135925;27;20115;-66
2021/11/03 12:20:25;;;;;;;28.90;19.42;;;7.70;99.90;;;;;;5135861;27;20152;-66
2021/11/03 12:22:51;;;;;;;28.63;19.30;;;7.70;99.90;;;;;;5135853;27;20111;-66
2021/11/03 12:25:17;;;;;;;29.15;20.10;;;7.70;99.90;;;;;;5138406;27;20019;-66
2021/11/03 12:27:45;;;;;;;31.08;19.42;;;7.70;99.90;;;;;;5144828;27;20019;-66
2021/11/03 12:30:18;;;;;;;30.90;21.38;;;7.60;99.90;;;;;;5147933;27;20128;-67
2021/11/03 12:32:44;;;;;;;30.75;20.40;;;7.70;99.90;;;;;;5156606;27;20019;-66
2021/11/03 12:35:33;;;;;;;16.25;9.63;;;7.60;99.90;;;;;;5156548;27;20385;-66
2021/11/03 12:38:11;;;;;;;30.80;20.13;;;8.50;99.90;;;;;;5127199;27;20030;-66
2021/11/03 12:40:37;;;;;;;30.13;16.98;;;9.80;99.90;;;;;;5156510;27;20101;-66
2021/11/03 12:43:24;;;;;;;25.13;17.73;;;9.50;99.90;;;;;;5156221;27;20122;-66
2021/11/03 12:46:07;;;;;;;25.80;17.33;;;9.00;99.90;;;;;;5155049;27;20019;-66
2021/11/03 12:49:00;;;;;;;25.38;17.90;;;8.60;99.90;;;;;;5156413;27;20033;-66
2021/11/03 12:51:37;;;;;;;26.60;18.42;;;8.40;99.90;;;;;;5156117;27;20031;-66
2021/11/03 12:54:23;;;;;;;26.60;17.20;;;8.30;99.90;;;;;;5156332;27;20023;-66
2021/11/03 12:57:01;;;;;;;30.40;17.42;;;8.20;99.90;;;;;;5156295;27;20033;-66
2021/11/03 12:59:39;;;;;;;29.67;18.85;;;8.10;99.90;;;;;;5155692;27;20092;-66
2021/11/03 13:02:21;;;;;;;29.10;17.30;;;8.00;99.90;;;;;;5155645;27;20033;-66
2021/11/03 13:04:57;;;;;;;26.08;19.23;;;8.00;99.90;;;;;;5155809;27;20025;-66
2021/11/03 13:07:29;;;;;;;24.35;16.92;;;7.90;99.90;;;;;;5155566;27;20026;-66
2021/11/03 13:10:05;;;;;;;24.38;16.02;;;9.00;99.90;;;;;;5156055;27;20023;-66
2021/11/03 13:12:36;;;;;;;23.50;17.80;;;8.80;99.90;;;;;;5155734;27;20097;-66
2021/11/03 13:15:19;;;;;;;26.80;17.25;;;8.60;99.90;;;;;;5155224;27;20415;-66
2021/11/03 13:18:07;;;;;;;27.63;17.95;;;8.40;99.90;;;;;;5138566;27;20066;-65
2021/11/03 13:20:37;;;;;;;24.67;16.30;;;8.20;99.90;;;;;;5134933;27;20038;-66
2021/11/03 13:23:04;;;;;;;24.02;17.00;;;8.20;99.90;;;;;;5134952;27;20035;-66